PWSweather.com
Personal Weather Stations
Station Observations
MAHIABEACH
Mahia Beach, Mahia Peninsula Hawkes Bay -NZ 4108

Mahia BeachMahia Peninsula Hawkes Bay -NZ 4108

Lat: -39.087594, Lon: 177.87261128

Elevation: 20

Station Type: ScientificSales WS1093

http://wairoa.net/mahia/index.htm

Latest ConditionsUpdated 5:00:05 PM GMT+12:12 Thursday, Oct 23, 2014
Currently Today's Max Today's Min Today's Average
Temperature 64.2°F17.9°C 65.5°F18.6°C 43.0°F6.1°C 54.9°F12.7°C
Dew Point 56.5°F13.6°C 58.5°F14.7°C 42.7°F5.9°C 50.9°F10.5°C
Winds 6.6 mph NE10.6 kmh NE 7.8 mph NE12.6 kmh NE - 3.1 mph 5.0 kmh
Wind Gusts 14.5 mph23.3 kmh 19.7 mph31.7 kmh - -
Humidity 76% 100% 70% 87%
Pressure 29.79 in1008.8 mb 30.10 in1019.3 mb 29.79 in1008.8 mb -
Hour Temp Dew Point Humidity Winds Wind Gusts Pressure Precip Precip Rate Daily Precip Total
05:00 PM 64.2°F17.9°C 56.5°F13.6°C 76% 6.6 mph NE10.6 kmh NE 14.5 mph23.3 kmh 29.79 in1008.8 mb 0.00 in0.0 mm 0.00 in/hr0.0 mm/hr 0.00 in0.0 mm
04:45 PM 64.6°F18.1°C 56.5°F13.6°C 75% 6.8 mph NE10.9 kmh NE 19.7 mph31.7 kmh 29.79 in1008.8 mb 0.00 in0.0 mm 0.00 in/hr0.0 mm/hr 0.00 in0.0 mm
04:30 PM 64.9°F18.3°C 56.1°F13.4°C 73% 7.0 mph NNE11.3 kmh NNE 18.3 mph29.5 kmh 29.80 in1009.1 mb 0.00 in0.0 mm 0.00 in/hr0.0 mm/hr 0.00 in0.0 mm
04:15 PM 65.3°F18.5°C 56.4°F13.6°C 73% 6.2 mph NE10.0 kmh NE 15.2 mph24.5 kmh 29.80 in1009.1 mb 0.00 in0.0 mm 0.00 in/hr0.0 mm/hr 0.00 in0.0 mm
04:00 PM 65.1°F18.4°C 57.0°F13.9°C 75% 6.8 mph NE10.9 kmh NE 18.3 mph29.5 kmh 29.80 in1009.1 mb 0.00 in0.0 mm 0.00 in/hr0.0 mm/hr 0.00 in0.0 mm
03:45 PM 64.8°F18.2°C 57.0°F13.9°C 76% 7.4 mph NE11.9 kmh NE 18.3 mph29.5 kmh 29.80 in1009.1 mb 0.00 in0.0 mm 0.00 in/hr0.0 mm/hr 0.00 in0.0 mm
03:30 PM 64.2°F17.9°C 57.2°F14.0°C 78% 7.6 mph NE12.2 kmh NE 16.8 mph27.0 kmh 29.81 in1009.5 mb 0.00 in0.0 mm 0.00 in/hr0.0 mm/hr 0.00 in0.0 mm
03:15 PM 64.9°F18.3°C 57.2°F14.0°C 76% 6.3 mph NE10.1 kmh NE 16.8 mph27.0 kmh 29.82 in1009.8 mb 0.00 in0.0 mm 0.00 in/hr0.0 mm/hr 0.00 in0.0 mm
03:00 PM 64.9°F18.3°C 56.8°F13.8°C 75% 6.9 mph NE11.1 kmh NE 14.5 mph23.3 kmh 29.83 in1010.2 mb 0.00 in0.0 mm 0.00 in/hr0.0 mm/hr 0.00 in0.0 mm
02:45 PM 65.3°F18.5°C 57.6°F14.2°C 76% 6.5 mph NNE10.5 kmh NNE 17.4 mph28.0 kmh 29.84 in1010.5 mb 0.00 in0.0 mm 0.00 in/hr0.0 mm/hr 0.00 in0.0 mm
02:30 PM 64.9°F18.3°C 56.8°F13.8°C 75% 6.5 mph NE10.5 kmh NE 16.8 mph27.0 kmh 29.84 in1010.5 mb 0.00 in0.0 mm 0.00 in/hr0.0 mm/hr 0.00 in0.0 mm
02:15 PM 65.1°F18.4°C 57.0°F13.9°C 75% 5.9 mph NNE9.5 kmh NNE 15.2 mph24.5 kmh 29.85 in1010.8 mb 0.00 in0.0 mm 0.00 in/hr0.0 mm/hr 0.00 in0.0 mm
02:00 PM 64.6°F18.1°C 56.5°F13.6°C 75% 7.8 mph NE12.6 kmh NE 19.7 mph31.7 kmh 29.87 in1011.5 mb 0.00 in0.0 mm 0.00 in/hr0.0 mm/hr 0.00 in0.0 mm
01:45 PM 65.1°F18.4°C 57.0°F13.9°C 75% 6.5 mph NNE10.5 kmh NNE 17.4 mph28.0 kmh 29.87 in1011.5 mb 0.00 in0.0 mm 0.00 in/hr0.0 mm/hr 0.00 in0.0 mm
01:30 PM 65.1°F18.4°C 57.4°F14.1°C 76% 7.1 mph NNE11.4 kmh NNE 16.8 mph27.0 kmh 29.89 in1012.2 mb 0.00 in0.0 mm 0.00 in/hr0.0 mm/hr 0.00 in0.0 mm
01:15 PM 65.5°F18.6°C 57.4°F14.1°C 75% 6.0 mph NE9.7 kmh NE 14.5 mph23.3 kmh 29.89 in1012.2 mb 0.00 in0.0 mm 0.00 in/hr0.0 mm/hr 0.00 in0.0 mm
01:00 PM 64.8°F18.2°C 58.5°F14.7°C 80% 4.6 mph ENE7.4 kmh ENE 15.2 mph24.5 kmh 29.89 in1012.2 mb 0.00 in0.0 mm 0.00 in/hr0.0 mm/hr 0.00 in0.0 mm
09:30 AM 65.3°F18.5°C 55.3°F12.9°C 70% 6.6 mph NE10.6 kmh NE 13.6 mph21.9 kmh 29.98 in1015.2 mb 0.00 in0.0 mm 0.00 in/hr0.0 mm/hr 0.00 in0.0 mm
09:15 AM 61.9°F16.6°C 53.5°F11.9°C 74% 6.5 mph NE10.5 kmh NE 14.5 mph23.3 kmh 29.98 in1015.2 mb 0.00 in0.0 mm 0.00 in/hr0.0 mm/hr 0.00 in0.0 mm
09:00 AM 62.6°F17.0°C 53.1°F11.7°C 71% 5.5 mph NE8.9 kmh NE 13.0 mph20.9 kmh 29.99 in1015.6 mb 0.00 in0.0 mm 0.00 in/hr0.0 mm/hr 0.00 in0.0 mm
08:45 AM 61.9°F16.6°C 52.8°F11.6°C 72% 6.2 mph NE10.0 kmh NE 13.6 mph21.9 kmh 29.99 in1015.6 mb 0.00 in0.0 mm 0.00 in/hr0.0 mm/hr 0.00 in0.0 mm
08:30 AM 62.4°F16.9°C 52.9°F11.6°C 71% 7.3 mph NE11.7 kmh NE 12.1 mph19.5 kmh 30.00 in1015.9 mb 0.00 in0.0 mm 0.00 in/hr0.0 mm/hr 0.00 in0.0 mm
08:15 AM 61.9°F16.6°C 53.5°F11.9°C 74% 5.1 mph ENE8.2 kmh ENE 11.4 mph18.3 kmh 30.00 in1015.9 mb 0.00 in0.0 mm 0.00 in/hr0.0 mm/hr 0.00 in0.0 mm
08:00 AM 61.5°F16.4°C 53.5°F11.9°C 75% 4.9 mph ENE7.9 kmh ENE 13.6 mph21.9 kmh 30.00 in1015.9 mb 0.00 in0.0 mm 0.00 in/hr0.0 mm/hr 0.00 in0.0 mm
07:45 AM 61.9°F16.6°C 54.2°F12.3°C 76% 3.3 mph NE5.3 kmh NE 8.3 mph13.4 kmh 30.00 in1015.9 mb 0.00 in0.0 mm 0.00 in/hr0.0 mm/hr 0.00 in0.0 mm
07:30 AM 60.6°F15.9°C 53.0°F11.7°C 76% 3.8 mph NE6.1 kmh NE 9.2 mph14.8 kmh 30.01 in1016.3 mb 0.00 in0.0 mm 0.00 in/hr0.0 mm/hr 0.00 in0.0 mm
07:15 AM 60.3°F15.7°C 54.8°F12.7°C 82% 2.5 mph NE4.0 kmh NE 6.0 mph9.7 kmh 30.01 in1016.3 mb 0.00 in0.0 mm 0.00 in/hr0.0 mm/hr 0.00 in0.0 mm
07:00 AM 57.0°F13.9°C 57.0°F13.9°C 100% 0.9 mph ESE1.4 kmh ESE 4.5 mph7.2 kmh 30.01 in1016.3 mb 0.00 in0.0 mm 0.00 in/hr0.0 mm/hr 0.00 in0.0 mm
06:45 AM 57.0°F13.9°C 57.0°F13.9°C 100% 1.2 mph NE1.9 kmh NE 6.0 mph9.7 kmh 30.01 in1016.3 mb 0.00 in0.0 mm 0.00 in/hr0.0 mm/hr 0.00 in0.0 mm
06:30 AM 56.7°F13.7°C 56.4°F13.6°C 99% 0.2 mph NE0.3 kmh NE 3.8 mph6.1 kmh 30.01 in1016.3 mb 0.00 in0.0 mm 0.00 in/hr0.0 mm/hr 0.00 in0.0 mm
06:15 AM 52.5°F11.4°C 52.3°F11.3°C 99% Calm Calm -- 30.02 in1016.6 mb 0.00 in0.0 mm 0.00 in/hr0.0 mm/hr 0.00 in0.0 mm
06:00 AM 48.4°F9.1°C 48.1°F8.9°C 99% Calm Calm 0.7 mph1.1 kmh 30.02 in1016.6 mb 0.00 in0.0 mm 0.00 in/hr0.0 mm/hr 0.00 in0.0 mm
05:45 AM 47.7°F8.7°C 47.4°F8.6°C 99% Calm Calm 1.6 mph2.6 kmh 30.02 in1016.6 mb 0.00 in0.0 mm 0.00 in/hr0.0 mm/hr 0.00 in0.0 mm
05:30 AM 47.3°F8.5°C 47.0°F8.3°C 99% 0.2 mph N0.3 kmh N 2.2 mph3.5 kmh 30.03 in1016.9 mb 0.00 in0.0 mm 0.00 in/hr0.0 mm/hr 0.00 in0.0 mm
05:15 AM 46.9°F8.3°C 46.7°F8.2°C 99% 0.1 mph NW0.2 kmh NW 2.2 mph3.5 kmh 30.03 in1016.9 mb 0.00 in0.0 mm 0.00 in/hr0.0 mm/hr 0.00 in0.0 mm
05:00 AM 48.2°F9.0°C 47.9°F8.8°C 99% 1.4 mph NNW2.3 kmh NNW 3.8 mph6.1 kmh 30.03 in1016.9 mb 0.00 in0.0 mm 0.00 in/hr0.0 mm/hr 0.00 in0.0 mm
04:45 AM 48.0°F8.9°C 47.8°F8.8°C 99% 0.5 mph NE0.8 kmh NE 3.1 mph5.0 kmh 30.03 in1016.9 mb 0.00 in0.0 mm 0.00 in/hr0.0 mm/hr 0.00 in0.0 mm
04:30 AM 47.8°F8.8°C 47.6°F8.7°C 99% 0.3 mph ESE0.5 kmh ESE 3.1 mph5.0 kmh 30.03 in1016.9 mb 0.00 in0.0 mm 0.00 in/hr0.0 mm/hr 0.00 in0.0 mm
04:15 AM 46.9°F8.3°C 46.7°F8.2°C 99% 0.1 mph NW0.2 kmh NW 1.6 mph2.6 kmh 30.02 in1016.6 mb 0.00 in0.0 mm 0.00 in/hr0.0 mm/hr 0.00 in0.0 mm
04:00 AM 47.3°F8.5°C 47.0°F8.3°C 99% 0.2 mph E0.3 kmh E 1.6 mph2.6 kmh 30.03 in1016.9 mb 0.00 in0.0 mm 0.00 in/hr0.0 mm/hr 0.00 in0.0 mm
03:45 AM 45.3°F7.4°C 45.1°F7.3°C 99% 0.6 mph ENE1.0 kmh ENE 3.1 mph5.0 kmh 30.03 in1016.9 mb 0.00 in0.0 mm 0.00 in/hr0.0 mm/hr 0.00 in0.0 mm
03:30 AM 45.1°F7.3°C 44.9°F7.2°C 99% Calm Calm 1.6 mph2.6 kmh 30.03 in1016.9 mb 0.00 in0.0 mm 0.00 in/hr0.0 mm/hr 0.00 in0.0 mm
03:15 AM 45.0°F7.2°C 44.7°F7.1°C 99% Calm Calm 1.6 mph2.6 kmh 30.04 in1017.3 mb 0.00 in0.0 mm 0.00 in/hr0.0 mm/hr 0.00 in0.0 mm
03:00 AM 43.5°F6.4°C 43.3°F6.3°C 99% Calm Calm 1.6 mph2.6 kmh 30.04 in1017.3 mb 0.00 in0.0 mm 0.00 in/hr0.0 mm/hr 0.00 in0.0 mm
02:45 AM 43.7°F6.5°C 43.4°F6.3°C 99% 0.6 mph NE1.0 kmh NE 2.2 mph3.5 kmh 30.04 in1017.3 mb 0.00 in0.0 mm 0.00 in/hr0.0 mm/hr 0.00 in0.0 mm
02:30 AM 43.3°F6.3°C 43.1°F6.2°C 99% 0.5 mph E0.8 kmh E 2.2 mph3.5 kmh 30.05 in1017.6 mb 0.00 in0.0 mm 0.00 in/hr0.0 mm/hr 0.00 in0.0 mm
02:15 AM 43.2°F6.2°C 42.9°F6.1°C 99% 0.7 mph ENE1.1 kmh ENE 2.2 mph3.5 kmh 30.06 in1017.9 mb 0.00 in0.0 mm 0.00 in/hr0.0 mm/hr 0.00 in0.0 mm
02:00 AM 43.0°F6.1°C 42.7°F5.9°C 99% 0.5 mph E0.8 kmh E 1.6 mph2.6 kmh 30.06 in1017.9 mb 0.00 in0.0 mm 0.00 in/hr0.0 mm/hr 0.00 in0.0 mm
01:45 AM 43.3°F6.3°C 43.1°F6.2°C 99% 0.7 mph ENE1.1 kmh ENE 2.2 mph3.5 kmh 30.06 in1017.9 mb 0.00 in0.0 mm 0.00 in/hr0.0 mm/hr 0.00 in0.0 mm
01:30 AM 43.5°F6.4°C 43.3°F6.3°C 99% 0.3 mph ENE0.5 kmh ENE 1.6 mph2.6 kmh 30.07 in1018.3 mb 0.00 in0.0 mm 0.00 in/hr0.0 mm/hr 0.00 in0.0 mm
01:15 AM 43.5°F6.4°C 43.3°F6.3°C 99% 0.3 mph ENE0.5 kmh ENE 2.2 mph3.5 kmh 30.07 in1018.3 mb 0.00 in0.0 mm 0.00 in/hr0.0 mm/hr 0.00 in0.0 mm
01:00 AM 43.9°F6.6°C 43.6°F6.4°C 99% 0.5 mph ENE0.8 kmh ENE 3.1 mph5.0 kmh 30.08 in1018.6 mb 0.00 in0.0 mm 0.00 in/hr0.0 mm/hr 0.00 in0.0 mm
12:45 AM 43.7°F6.5°C 43.4°F6.3°C 99% 0.2 mph E0.3 kmh E 1.6 mph2.6 kmh 30.09 in1019.0 mb 0.00 in0.0 mm 0.00 in/hr0.0 mm/hr 0.00 in0.0 mm
12:30 AM 43.7°F6.5°C 43.4°F6.3°C 99% 0.3 mph E0.5 kmh E 1.6 mph2.6 kmh 30.09 in1019.0 mb 0.00 in0.0 mm 0.00 in/hr0.0 mm/hr 0.00 in0.0 mm
12:15 AM 43.9°F6.6°C 43.6°F6.4°C 99% 0.3 mph E0.5 kmh E 2.2 mph3.5 kmh 30.09 in1019.0 mb 0.00 in0.0 mm 0.00 in/hr0.0 mm/hr 0.00 in0.0 mm
12:00 AM 44.1°F6.7°C 43.8°F6.6°C 99% Calm Calm 1.6 mph2.6 kmh 30.10 in1019.3 mb 0.00 in0.0 mm 0.00 in/hr0.0 mm/hr 0.00 in0.0 mm